createdAt,value
2022-10-29T00:02:37.838Z,13.10
2022-10-29T00:07:39.714Z,13.10
2022-10-29T00:12:41.416Z,13.10
2022-10-29T00:17:43.645Z,13.10
2022-10-29T00:22:45.382Z,13.10
2022-10-29T00:27:47.243Z,13.10
2022-10-29T00:32:49.088Z,13.00
2022-10-29T00:37:50.917Z,12.90
2022-10-29T00:42:52.645Z,12.90
2022-10-29T00:47:54.823Z,13.00
2022-10-29T00:52:58.065Z,12.90
2022-10-29T00:58:00.893Z,13.00
2022-10-29T01:03:02.671Z,13.00
2022-10-29T01:08:05.553Z,13.00
2022-10-29T01:13:22.339Z,13.00
2022-10-29T01:18:36.490Z,13.00
2022-10-29T01:23:41.285Z,12.90
2022-10-29T01:28:51.693Z,13.00
2022-10-29T01:34:04.274Z,13.00
2022-10-29T01:39:37.513Z,12.90
2022-10-29T01:44:46.074Z,12.90
2022-10-29T01:49:57.822Z,12.90
2022-10-29T01:54:59.602Z,12.90
2022-10-29T02:00:13.697Z,12.90
2022-10-29T02:05:54.955Z,12.90
2022-10-29T02:11:09.069Z,12.90
2022-10-29T02:16:11.587Z,12.90
2022-10-29T02:21:20.139Z,12.90
2022-10-29T02:26:22.230Z,12.80
2022-10-29T02:31:23.981Z,12.80
2022-10-29T02:36:25.751Z,12.80
2022-10-29T02:41:27.568Z,12.80
2022-10-29T02:46:30.311Z,12.70
2022-10-29T02:51:32.087Z,12.60
2022-10-29T02:56:33.822Z,12.60
2022-10-29T03:01:35.673Z,12.60
2022-10-29T03:06:38.006Z,12.50
2022-10-29T03:11:39.800Z,12.30
2022-10-29T03:16:41.526Z,12.30
2022-10-29T03:21:43.265Z,12.30
2022-10-29T03:26:45.043Z,12.30
2022-10-29T03:31:46.866Z,12.30
2022-10-29T03:36:48.606Z,12.40
2022-10-29T03:41:50.341Z,12.40
2022-10-29T03:46:52.049Z,12.40
2022-10-29T03:51:53.761Z,12.50
2022-10-29T03:56:55.505Z,12.60
2022-10-29T04:01:57.350Z,12.60
2022-10-29T04:06:59.735Z,12.70
2022-10-29T04:12:01.463Z,12.70
2022-10-29T04:17:03.406Z,12.60
2022-10-29T04:32:49.503Z,12.60
2022-10-29T04:37:51.301Z,12.60
2022-10-29T04:42:53.195Z,12.60
2022-10-29T04:48:06.080Z,12.60
2022-10-29T04:53:08.792Z,12.60
2022-10-29T04:58:16.129Z,12.60
2022-10-29T05:03:17.845Z,12.50
2022-10-29T05:08:20.221Z,12.50
2022-10-29T05:13:21.946Z,12.60
2022-10-29T05:18:23.809Z,12.60
2022-10-29T05:23:26.825Z,12.60
2022-10-29T05:28:28.616Z,12.60
2022-10-29T05:33:30.338Z,12.70
2022-10-29T05:38:32.385Z,12.70
2022-10-29T05:43:34.360Z,12.60
2022-10-29T05:48:36.081Z,12.60
2022-10-29T05:53:37.889Z,12.70
2022-10-29T05:58:39.769Z,12.70
2022-10-29T06:03:41.569Z,12.70
2022-10-29T06:08:43.426Z,12.70
2022-10-29T06:13:45.253Z,12.70
2022-10-29T06:18:47.013Z,12.60
2022-10-29T06:23:50.704Z,12.70
2022-10-29T06:28:52.470Z,12.60
2022-10-29T06:33:55.495Z,12.70
2022-10-29T06:38:57.230Z,12.70
2022-10-29T06:43:58.961Z,12.70
2022-10-29T06:49:01.209Z,12.70
2022-10-29T06:54:03.026Z,12.70
2022-10-29T06:59:04.877Z,12.60
2022-10-29T07:04:06.762Z,12.70
2022-10-29T07:09:08.618Z,12.60
2022-10-29T07:14:10.400Z,12.70
2022-10-29T07:19:12.128Z,12.70
2022-10-29T07:24:13.995Z,12.70
2022-10-29T07:29:15.838Z,12.80
2022-10-29T07:34:17.590Z,12.70
2022-10-29T07:39:19.432Z,12.80
2022-10-29T07:44:21.215Z,12.80
2022-10-29T07:49:23.010Z,12.90
2022-10-29T07:54:24.718Z,12.90
2022-10-29T07:59:26.475Z,12.90
2022-10-29T08:04:28.165Z,13.00
2022-10-29T08:09:29.869Z,13.10
2022-10-29T08:14:31.598Z,13.10
2022-10-29T08:19:33.378Z,13.20
2022-10-29T08:24:35.158Z,13.30
2022-10-29T08:29:36.894Z,13.30
2022-10-29T08:34:38.613Z,13.40
2022-10-29T08:39:40.356Z,13.50
2022-10-29T08:44:45.023Z,13.50
2022-10-29T08:50:00.310Z,13.50
2022-10-29T08:55:18.805Z,13.50
2022-10-29T09:00:23.695Z,13.60
2022-10-29T09:05:35.654Z,13.70
2022-10-29T09:10:41.304Z,13.70
2022-10-29T09:16:01.374Z,13.70
2022-10-29T09:21:18.533Z,13.70
2022-10-29T09:26:39.607Z,13.70
2022-10-29T09:31:46.802Z,13.80
2022-10-29T09:36:48.864Z,13.80
2022-10-29T09:41:54.769Z,13.90
2022-10-29T09:47:22.629Z,13.90
2022-10-29T09:52:29.201Z,14.00
2022-10-29T09:57:34.251Z,14.10
2022-10-29T10:02:44.436Z,14.30
2022-10-29T10:08:06.357Z,14.30
2022-10-29T10:13:17.189Z,14.40
2022-10-29T10:18:38.694Z,14.40
2022-10-29T10:23:43.314Z,14.40
2022-10-29T10:28:45.050Z,14.50
2022-10-29T10:33:54.739Z,14.50
2022-10-29T10:38:59.176Z,14.60
2022-10-29T10:44:04.049Z,14.60
2022-10-29T10:49:13.065Z,14.60
2022-10-29T10:54:42.223Z,14.80
2022-10-29T10:59:55.010Z,14.80
2022-10-29T11:05:07.929Z,14.80
2022-10-29T11:10:13.838Z,14.90
2022-10-29T11:15:35.883Z,14.80
2022-10-29T11:20:40.064Z,14.80
2022-10-29T11:25:48.817Z,14.80
2022-10-29T11:30:54.826Z,14.80
2022-10-29T11:36:20.260Z,14.80
2022-10-29T11:41:38.113Z,14.70
2022-10-29T11:47:05.554Z,14.70
2022-10-29T11:52:14.725Z,14.70
2022-10-29T11:57:31.419Z,14.60
2022-10-29T12:03:13.200Z,14.60
2022-10-29T12:08:36.633Z,14.70
2022-10-29T12:13:50.193Z,14.60
2022-10-29T12:19:19.519Z,14.70
2022-10-29T12:24:58.263Z,14.90
2022-10-29T12:30:06.266Z,14.90
2022-10-29T12:35:20.037Z,15.00
2022-10-29T12:40:31.401Z,15.00
2022-10-29T12:45:59.500Z,14.90
2022-10-29T12:51:17.441Z,14.80
2022-10-29T12:56:20.049Z,14.90
2022-10-29T13:01:57.547Z,15.10
2022-10-29T13:06:59.976Z,14.90
2022-10-29T13:12:13.876Z,14.70
2022-10-29T13:17:36.201Z,14.50
2022-10-29T13:22:52.786Z,14.40
2022-10-29T13:27:55.137Z,14.50
2022-10-29T13:32:57.314Z,14.50
2022-10-29T13:38:16.041Z,14.40
2022-10-29T13:43:18.479Z,14.20
2022-10-29T13:48:28.651Z,14.10
2022-10-29T13:53:43.380Z,14.00
2022-10-29T13:58:47.934Z,13.90
2022-10-29T14:04:13.163Z,13.80
2022-10-29T14:09:30.094Z,13.70
2022-10-29T14:14:46.502Z,13.50
2022-10-29T14:19:51.233Z,13.40
2022-10-29T14:24:53.052Z,13.30
2022-10-29T14:30:13.218Z,13.20
2022-10-29T14:35:16.374Z,13.10
2022-10-29T14:40:23.001Z,13.00
2022-10-29T14:45:28.618Z,13.00
2022-10-29T14:50:31.281Z,12.90
2022-10-29T14:55:37.622Z,12.80
2022-10-29T15:00:49.777Z,12.80
2022-10-29T15:05:52.439Z,12.80
2022-10-29T15:10:57.771Z,12.70
2022-10-29T15:16:00.846Z,12.60
2022-10-29T15:21:04.058Z,12.60
2022-10-29T15:26:09.188Z,12.50
2022-10-29T15:31:34.278Z,12.50
2022-10-29T15:36:53.743Z,12.40
2022-10-29T15:41:58.830Z,12.30
2022-10-29T15:47:02.733Z,12.10
2022-10-29T15:52:04.681Z,12.00
2022-10-29T15:57:10.744Z,11.80
2022-10-29T16:02:19.857Z,11.80
2022-10-29T16:07:21.790Z,11.80
2022-10-29T16:12:24.122Z,11.70
2022-10-29T16:17:28.081Z,11.60
2022-10-29T16:22:30.383Z,11.60
2022-10-29T16:27:32.129Z,11.50
2022-10-29T16:32:33.983Z,11.50
2022-10-29T16:37:35.722Z,11.50
2022-10-29T16:42:38.046Z,11.50
2022-10-29T16:47:39.828Z,11.40
2022-10-29T16:52:41.702Z,11.30
2022-10-29T16:57:43.458Z,11.20
2022-10-29T17:02:45.833Z,11.10
2022-10-29T17:07:47.687Z,11.10
2022-10-29T17:12:50.062Z,11.00
2022-10-29T17:17:52.384Z,11.00
2022-10-29T17:22:54.165Z,10.90
2022-10-29T17:27:56.260Z,10.70
2022-10-29T17:32:58.578Z,10.70
2022-10-29T17:38:00.553Z,10.70
2022-10-29T17:43:02.924Z,10.60
2022-10-29T17:48:04.788Z,10.60
2022-10-29T17:53:06.547Z,10.60
2022-10-29T17:58:08.278Z,10.60
2022-10-29T18:03:10.016Z,10.60
2022-10-29T18:08:11.777Z,10.70
2022-10-29T18:13:13.557Z,10.60
2022-10-29T18:18:15.303Z,10.50
2022-10-29T18:23:17.012Z,10.50
2022-10-29T18:28:18.735Z,10.50
2022-10-29T18:33:20.544Z,10.60
2022-10-29T18:38:25.765Z,10.30
2022-10-29T18:43:33.102Z,10.50
2022-10-29T18:48:39.709Z,10.40
2022-10-29T18:53:41.709Z,10.30
2022-10-29T18:58:43.973Z,10.30
2022-10-29T19:03:50.718Z,10.40
2022-10-29T19:08:52.749Z,10.30
2022-10-29T19:13:56.667Z,10.40
2022-10-29T19:19:00.959Z,10.30
2022-10-29T19:24:03.769Z,10.30
2022-10-29T19:29:06.642Z,10.30
2022-10-29T19:34:08.696Z,10.20
2022-10-29T19:39:10.594Z,10.20
2022-10-29T19:44:12.348Z,10.10
2022-10-29T19:49:14.483Z,10.00
2022-10-29T19:54:16.269Z,10.10
2022-10-29T19:59:18.090Z,10.10
2022-10-29T20:04:19.818Z,10.10
2022-10-29T20:09:21.553Z,10.10
2022-10-29T20:14:28.776Z,10.00
2022-10-29T20:19:30.839Z,10.00
2022-10-29T20:24:32.590Z,10.10
2022-10-29T20:29:34.349Z,10.00
2022-10-29T20:34:36.095Z,9.90
2022-10-29T20:39:37.882Z,9.90
2022-10-29T20:44:39.846Z,9.80
2022-10-29T20:49:41.589Z,9.90
2022-10-29T20:54:43.356Z,9.80
2022-10-29T20:59:45.407Z,9.80
2022-10-29T21:04:47.133Z,9.80
2022-10-29T21:09:48.931Z,9.60
2022-10-29T21:14:50.717Z,9.70
2022-10-29T21:19:52.474Z,9.60
2022-10-29T21:24:54.214Z,9.70
2022-10-29T21:29:55.943Z,9.70
2022-10-29T21:34:57.758Z,9.80
2022-10-29T21:40:03.194Z,9.80
2022-10-29T21:45:08.142Z,9.80
2022-10-29T21:50:10.529Z,9.80
2022-10-29T21:55:12.274Z,9.90
2022-10-29T22:00:15.622Z,9.80
2022-10-29T22:05:17.400Z,9.90
2022-10-29T22:10:19.133Z,9.90
2022-10-29T22:15:20.878Z,10.20
2022-10-29T22:20:22.620Z,10.40
2022-10-29T22:25:24.651Z,10.50
2022-10-29T22:30:26.359Z,10.60
2022-10-29T22:35:28.102Z,10.50
2022-10-29T22:40:29.921Z,10.50
2022-10-29T22:45:31.653Z,10.60
2022-10-29T22:50:33.413Z,10.60
2022-10-29T22:55:35.133Z,10.60
2022-10-29T23:00:36.887Z,10.70
2022-10-29T23:05:38.624Z,10.70
2022-10-29T23:10:40.345Z,10.80
2022-10-29T23:15:49.356Z,10.80
2022-10-29T23:21:02.057Z,10.90
2022-10-29T23:26:04.332Z,11.00
2022-10-29T23:31:10.775Z,10.90
2022-10-29T23:36:13.658Z,10.80
2022-10-29T23:41:15.413Z,10.80
2022-10-29T23:46:17.252Z,10.70
2022-10-29T23:51:19.114Z,10.90
2022-10-29T23:56:20.929Z,10.80
